North Tazewell, VA (24630)

11:35 PM EDT วัน ตุลาคม 25, 2014 (GMT -0400)
Parkview Heights | Change Station
CLOSE
Current Station
Personal Weather Stations
Location: Bluefield, VA
Elevation: 2402 ft
Nearby Weather Stations

Elev 2402 ft 37.24 °N, 81.28 °W | Updated 4 seconds ago

มีเมฆคลุมเป็นส่วนๆ
มีเมฆคลุมเป็นส่วนๆ
52.9 ฟาเรนไฮน์
Feels Like 52.9 ฟาเรนไฮน์
N
0.0
ลม ความผันแปร ลม from ทางทิศเหนือ
Gusts 0.0 mph

วันนี้
High -- | Low -- ฟาเรนไฮน์
--% Chance of Precip.
Yesterday
High -- | Low -- ฟาเรนไฮน์
Precip. -- นิ้ว
7:43 AM 6:36 PM
เดือนเสี้ยว, 5% visible
ความดัน 30.00 นิ้ว
ทัศนวิสัย 10.0 ไมล์
เมฆ มีเมฆคลุมเป็นส่วนใหญ่ 1800 ft
อุณหภูมิที่อากาศอาจจับตัวเป็นหยาดน้ำค้าง 48 ฟาเรนไฮน์
ความชื้น 85%
Rainfall 0.00 นิ้ว
Snow Depth Not available.
UV 0.0 out of 12
Pollen 1.20 out of 12
Air Quality Not available.
Flu Activity Sporadic
METAR KJFZ 260315Z AUTO 25008KT 10SM BKN018 15/M04 A3000 RMK AO2 T01481040

More Conditions Fewer Conditions

ความดัน 30.00 นิ้ว
ทัศนวิสัย 10.0 ไมล์
เมฆ มีเมฆคลุมเป็นส่วนใหญ่ 1800 ft
อุณหภูมิที่อากาศอาจจับตัวเป็นหยาดน้ำค้าง 48 ฟาเรนไฮน์
ความชื้น 85%
Rainfall 0.00 นิ้ว
Snow Depth Not available.
UV 0.0 out of 12
Pollen 1.20 out of 12
Air Quality Not available.
Flu Activity Sporadic
METAR KJFZ 260315Z AUTO 25008KT 10SM BKN018 15/M04 A3000 RMK AO2 T01481040

More Conditions Fewer Conditions

10-Day Weather Forecast

Almanac

ดาราศาสตร์

Oct. 25, 2014 Rise Set
Actual Time 7:43 AM EDT 6:36 PM EDT
Civil Twilight 7:16 AM EDT 7:02 PM EDT
Nautical Twilight 6:46 AM EDT 7:33 PM EDT
Astronomical Twilight 6:16 AM EDT 8:03 PM EDT
Moon 9:19 AM EDT (10/25) 8:00 PM EDT (10/25)
Length Of Visible Light 11h 46m
ความยาวของวัน
10h 52m
Tomorrow will be 2m 11s shorter.
เดือนเสี้ยว, 5% of the Moon is Illuminated
วันนี้
เดือนเสี้ยว
Oct 30
ไตรมาสแรก
Nov 6
พระจันทร์เต็มดวง
Nov 14
ไตรมาสล่าสุด
Nov 22
New

Today's Extremes

State Highs State Lows

Community

WunderPhotos

Upload Photos

1,765,095 photos uploaded!

Nearby

Snow Depth

Station Depth Elevation
No new snow has been reported.

Earthquake Activity

City Distance Mag. Time & Date
No recent earthquake activity has been reported nearby.
Minimum magnitude displayed is 2.5.

Coastal Water Temperatures

สถานที่ อุณหภูมิ
No Stations Reporting

Nearby Weather Stations